Time;durP1;ratioP1;P1;durP2;ratioP2;P2;SDS_P1;SDS_P2;PMS_P1;PMS_P2;Temp;Humidity;BMP_temperature;BMP_pressure;BME280_temperature;BME280_humidity;BME280_pressure;Samples;Min_cycle;Max_cycle;Signal;HPM_P1;HPM_P2
2022/01/21 00:01:51;;;;;;;5.67;2.07;;;1.80;99.90;;;;;;5041512;28;20428;-78
2022/01/21 00:04:17;;;;;;;5.90;2.30;;;1.90;99.90;;;;;;5041848;28;20664;-78
2022/01/21 00:06:43;;;;;;;9.70;2.67;;;2.00;99.90;;;;;;5041139;28;20187;-77
2022/01/21 00:09:09;;;;;;;9.20;2.53;;;2.00;99.90;;;;;;5041644;28;20447;-77
2022/01/21 00:11:36;;;;;;;7.20;2.70;;;1.80;99.90;;;;;;5041910;28;20791;-77
2022/01/21 00:14:02;;;;;;;4.50;2.23;;;1.80;99.90;;;;;;5041119;28;20471;-77
2022/01/21 00:16:29;;;;;;;10.50;2.73;;;1.70;99.90;;;;;;5041642;28;20424;-77
2022/01/21 00:19:04;;;;;;;3.90;2.10;;;1.70;99.90;;;;;;5041663;28;20468;-78
2022/01/21 00:32:30;;;;;;;8.60;1.93;;;1.70;99.90;;;;;;5058983;28;20773;-78
2022/01/21 00:34:56;;;;;;;10.70;2.93;;;1.70;99.90;;;;;;5041932;28;20423;-78
2022/01/21 00:37:22;;;;;;;7.17;2.20;;;1.70;99.90;;;;;;5040746;28;20455;-77
2022/01/21 00:39:53;;;;;;;6.00;2.50;;;1.70;99.90;;;;;;5041197;28;20486;-78
2022/01/21 00:44:53;;;;;;;12.33;2.50;;;1.70;99.90;;;;;;5058958;28;20447;-78
2022/01/21 00:47:19;;;;;;;5.60;2.10;;;1.70;99.90;;;;;;5040712;28;20432;-77
2022/01/21 00:49:45;;;;;;;15.90;2.60;;;1.70;99.90;;;;;;5041013;28;20429;-77
2022/01/21 00:52:11;;;;;;;5.10;2.00;;;1.70;99.90;;;;;;5040275;28;20455;-77
2022/01/21 00:54:37;;;;;;;8.83;2.77;;;1.60;99.90;;;;;;5041054;28;20439;-77
2022/01/21 00:57:04;;;;;;;8.53;3.30;;;1.60;99.90;;;;;;5040145;28;20419;-78
2022/01/21 00:59:29;;;;;;;5.73;2.57;;;1.60;99.90;;;;;;5039964;28;20816;-77
2022/01/21 01:01:55;;;;;;;5.53;2.87;;;1.60;99.90;;;;;;5040244;28;20459;-77
2022/01/21 01:04:21;;;;;;;6.80;2.30;;;1.60;99.90;;;;;;5040690;28;20248;-77
2022/01/21 01:06:47;;;;;;;8.63;2.63;;;1.60;99.90;;;;;;5040459;28;20192;-78
2022/01/21 01:09:13;;;;;;;4.97;2.40;;;1.70;99.90;;;;;;5040688;28;20194;-77
2022/01/21 01:20:04;;;;;;;7.47;2.80;;;1.70;99.90;;;;;;4996744;28;20563;-78
2022/01/21 01:27:49;;;;;;;14.37;4.00;;;1.60;99.90;;;;;;5057546;28;20409;-78
2022/01/21 01:30:23;;;;;;;7.03;3.07;;;1.60;99.90;;;;;;5039976;28;20412;-78
2022/01/21 01:32:50;;;;;;;12.43;3.87;;;1.70;99.90;;;;;;5040346;28;20494;-77
2022/01/21 01:35:19;;;;;;;15.70;3.57;;;1.80;99.90;;;;;;5040120;28;20415;-78
2022/01/21 01:40:28;;;;;;;7.47;2.50;;;1.90;99.90;;;;;;5057507;28;21001;-77
2022/01/21 01:51:11;;;;;;;10.13;2.47;;;2.10;99.90;;;;;;5058072;28;20483;-77
2022/01/21 01:54:12;;;;;;;4.70;2.63;;;2.10;99.90;;;;;;5039991;28;20439;-78
2022/01/21 01:56:43;;;;;;;6.83;3.13;;;2.20;99.90;;;;;;5036057;28;20431;-77
2022/01/21 01:59:09;;;;;;;8.80;2.77;;;2.10;99.90;;;;;;5041262;28;20554;-77
2022/01/21 02:01:35;;;;;;;11.07;3.70;;;2.00;99.90;;;;;;5041025;28;20521;-77
2022/01/21 02:04:00;;;;;;;6.77;2.60;;;2.00;99.90;;;;;;5041184;28;20919;-78
2022/01/21 02:06:26;;;;;;;7.03;3.00;;;2.00;99.90;;;;;;5041177;28;20542;-77
2022/01/21 02:08:52;;;;;;;6.50;3.00;;;1.90;99.90;;;;;;5039626;28;20241;-78
2022/01/21 02:11:18;;;;;;;7.63;2.50;;;1.90;99.90;;;;;;5037312;28;20285;-78
2022/01/21 02:13:49;;;;;;;4.20;1.97;;;2.00;99.90;;;;;;5037377;28;20494;-78
2022/01/21 02:21:40;;;;;;;4.33;2.00;;;2.00;99.90;;;;;;5050970;28;20508;-78
2022/01/21 02:24:08;;;;;;;5.77;2.30;;;2.10;99.90;;;;;;5029399;28;20426;-77
2022/01/21 02:26:35;;;;;;;7.07;2.50;;;2.10;99.90;;;;;;5038434;28;20428;-78
2022/01/21 02:29:03;;;;;;;6.43;2.40;;;2.10;99.90;;;;;;5039371;28;20539;-77
2022/01/21 02:31:29;;;;;;;12.00;2.47;;;2.20;99.90;;;;;;5039906;28;20428;-77
2022/01/21 02:33:55;;;;;;;10.43;2.50;;;2.30;99.90;;;;;;5040415;28;20470;-78
2022/01/21 02:36:21;;;;;;;5.30;1.90;;;2.30;99.90;;;;;;5042318;28;20425;-78
2022/01/21 02:38:47;;;;;;;7.40;2.40;;;2.30;99.90;;;;;;5041518;28;20457;-77
2022/01/21 02:41:13;;;;;;;8.03;2.40;;;2.20;99.90;;;;;;5041493;28;20912;-78
2022/01/21 02:43:39;;;;;;;7.23;2.47;;;2.20;99.90;;;;;;5041891;28;20215;-78
2022/01/21 02:46:08;;;;;;;4.23;1.97;;;2.10;99.90;;;;;;5042804;28;20179;-77
2022/01/21 02:48:37;;;;;;;6.13;2.27;;;2.10;99.90;;;;;;5041599;28;20456;-77
2022/01/21 02:51:05;;;;;;;8.80;2.80;;;2.10;99.90;;;;;;5041891;28;20426;-78
2022/01/21 02:54:03;;;;;;;8.70;2.70;;;2.20;99.90;;;;;;5041013;28;20473;-78
2022/01/21 02:56:24;;;;;;;8.00;2.30;;;2.30;99.90;;;;;;5061802;28;20500;-77
2022/01/21 02:58:50;;;;;;;5.47;2.37;;;2.30;99.90;;;;;;5044839;28;20517;-77
2022/01/21 03:01:17;;;;;;;6.97;3.03;;;2.30;99.90;;;;;;5044107;28;20447;-77
2022/01/21 03:03:45;;;;;;;8.33;2.87;;;2.30;99.90;;;;;;5045273;28;20452;-77
2022/01/21 03:06:17;;;;;;;11.20;3.30;;;2.30;99.90;;;;;;5044365;28;20425;-77
2022/01/21 03:08:45;;;;;;;4.10;2.67;;;2.20;99.90;;;;;;5043610;28;20431;-78
2022/01/21 03:11:12;;;;;;;8.63;3.37;;;2.30;99.90;;;;;;5044979;28;20460;-78
2022/01/21 03:13:39;;;;;;;9.60;2.23;;;2.30;99.90;;;;;;5044222;28;20453;-78
2022/01/21 03:16:05;;;;;;;11.90;2.73;;;2.40;99.90;;;;;;5044052;28;20429;-77
2022/01/21 03:18:31;;;;;;;14.03;2.83;;;2.40;99.90;;;;;;5043812;28;20540;-77
2022/01/21 03:20:57;;;;;;;6.80;2.80;;;2.40;99.90;;;;;;5043908;28;20936;-78
2022/01/21 03:23:25;;;;;;;9.37;2.40;;;2.30;99.90;;;;;;5043600;28;20202;-77
2022/01/21 03:25:50;;;;;;;7.60;2.37;;;2.40;99.90;;;;;;5043463;28;20433;-78
2022/01/21 03:28:17;;;;;;;3.43;1.93;;;2.40;99.90;;;;;;5044739;28;20427;-77
2022/01/21 03:30:43;;;;;;;8.47;2.90;;;2.40;99.90;;;;;;5042996;28;20193;-78
2022/01/21 03:33:09;;;;;;;11.30;3.00;;;2.50;99.90;;;;;;5043614;28;20482;-78
2022/01/21 03:35:35;;;;;;;7.10;2.30;;;2.60;99.90;;;;;;5043652;28;20424;-77
2022/01/21 03:38:01;;;;;;;7.43;2.00;;;2.60;99.90;;;;;;5042423;28;20468;-77
2022/01/21 03:40:27;;;;;;;11.87;3.57;;;2.60;99.90;;;;;;5043843;28;20733;-77
2022/01/21 03:42:52;;;;;;;7.20;2.83;;;2.60;99.90;;;;;;5043407;28;20191;-77
2022/01/21 03:45:18;;;;;;;6.93;2.87;;;2.50;99.90;;;;;;5043245;28;20189;-78
2022/01/21 03:47:45;;;;;;;7.20;2.47;;;2.50;99.90;;;;;;5043358;28;20183;-77
2022/01/21 03:50:32;;;;;;;14.37;2.90;;;2.50;99.90;;;;;;5043611;28;20560;-77
2022/01/21 03:52:59;;;;;;;6.20;2.00;;;2.50;99.90;;;;;;5043921;28;20444;-77
2022/01/21 03:55:26;;;;;;;11.63;2.50;;;2.40;99.90;;;;;;5043030;28;20421;-77
2022/01/21 03:57:52;;;;;;;8.73;2.80;;;2.40;99.90;;;;;;5043487;28;20917;-77
2022/01/21 04:00:23;;;;;;;9.00;2.63;;;2.50;99.90;;;;;;5043400;28;20463;-77
2022/01/21 04:02:49;;;;;;;6.97;2.60;;;2.50;99.90;;;;;;5054120;22;20519;-84
2022/01/21 04:05:14;;;;;;;11.30;2.43;;;2.50;99.90;;;;;;5072632;28;20810;-84
2022/01/21 04:07:40;;;;;;;4.63;2.27;;;2.60;99.90;;;;;;5053392;28;20429;-84
2022/01/21 04:10:06;;;;;;;8.00;2.40;;;2.50;99.90;;;;;;5054206;28;20301;-84
2022/01/21 04:12:32;;;;;;;5.97;1.90;;;2.50;99.90;;;;;;5054146;28;20203;-83
2022/01/21 04:14:59;;;;;;;7.60;2.43;;;2.50;99.90;;;;;;5052977;28;20504;-83
2022/01/21 04:17:25;;;;;;;8.03;3.03;;;2.60;99.90;;;;;;5071685;28;20432;-83
2022/01/21 04:19:51;;;;;;;7.30;2.33;;;2.60;99.90;;;;;;5052646;28;20460;-84
2022/01/21 04:22:16;;;;;;;6.40;2.00;;;2.60;99.90;;;;;;5051999;28;20433;-83
2022/01/21 04:24:45;;;;;;;5.60;2.03;;;2.70;99.90;;;;;;5051942;28;20179;-83
2022/01/21 04:27:11;;;;;;;5.20;2.30;;;2.80;99.90;;;;;;5069310;28;20176;-83
2022/01/21 04:29:36;;;;;;;7.57;3.00;;;2.80;99.90;;;;;;5039125;28;20978;-83
2022/01/21 04:32:02;;;;;;;7.60;2.60;;;2.80;99.90;;;;;;5032770;28;20482;-83
2022/01/21 04:34:28;;;;;;;5.33;2.60;;;2.80;99.90;;;;;;5063050;28;20182;-83
2022/01/21 04:36:53;;;;;;;12.10;2.70;;;2.80;99.90;;;;;;5066047;28;20501;-83
2022/01/21 04:39:26;;;;;;;4.80;2.47;;;2.70;99.90;;;;;;5038793;28;20565;-83
2022/01/21 04:47:19;;;;;;;6.40;2.23;;;2.80;99.90;;;;;;5073166;28;20184;-83
2022/01/21 04:49:46;;;;;;;9.50;2.50;;;2.80;99.90;;;;;;5055436;28;20409;-83
2022/01/21 04:52:12;;;;;;;8.27;3.10;;;2.80;99.90;;;;;;5055162;28;20451;-83
2022/01/21 04:54:37;;;;;;;11.93;2.90;;;2.80;99.90;;;;;;5055167;28;20416;-83
2022/01/21 04:57:21;;;;;;;7.93;2.77;;;2.70;99.90;;;;;;5055048;28;20186;-83
2022/01/21 04:59:47;;;;;;;5.83;2.10;;;2.70;99.90;;;;;;5073269;28;20209;-83
2022/01/21 05:02:12;;;;;;;4.63;2.70;;;2.70;99.90;;;;;;5054958;28;20455;-83
2022/01/21 05:04:38;;;;;;;5.07;2.80;;;2.70;99.90;;;;;;5054622;28;20287;-83
2022/01/21 05:07:07;;;;;;;3.70;1.80;;;2.70;99.90;;;;;;5054482;28;20607;-84
2022/01/21 05:09:35;;;;;;;9.07;2.57;;;2.60;99.90;;;;;;5064009;28;20186;-83
2022/01/21 05:12:07;;;;;;;5.37;2.70;;;2.60;99.90;;;;;;5070131;28;20808;-83
2022/01/21 05:14:46;;;;;;;12.83;2.67;;;2.60;99.90;;;;;;5060364;28;21011;-83
2022/01/21 05:17:14;;;;;;;8.37;2.60;;;2.60;99.90;;;;;;5046656;28;20464;-84
2022/01/21 05:19:40;;;;;;;12.77;3.10;;;2.60;99.90;;;;;;5057100;28;20484;-83
2022/01/21 05:22:06;;;;;;;9.63;2.93;;;2.60;99.90;;;;;;5065980;28;20433;-83
2022/01/21 05:24:31;;;;;;;7.33;2.67;;;2.60;99.90;;;;;;5065190;28;20174;-83
2022/01/21 05:26:58;;;;;;;8.10;2.40;;;2.60;99.90;;;;;;5064398;28;20174;-83
2022/01/21 05:29:30;;;;;;;7.80;2.60;;;2.70;99.90;;;;;;5064985;28;20196;-83
2022/01/21 05:31:55;;;;;;;8.40;2.90;;;2.80;99.90;;;;;;5083181;28;20428;-83
2022/01/21 05:34:21;;;;;;;11.10;2.80;;;2.80;99.90;;;;;;5083682;28;20423;-83
2022/01/21 05:36:48;;;;;;;8.33;2.73;;;2.80;99.90;;;;;;5063676;28;20184;-83
2022/01/21 05:39:15;;;;;;;7.97;2.60;;;2.90;99.90;;;;;;5064763;28;20300;-83
2022/01/21 05:41:45;;;;;;;6.77;2.43;;;2.90;99.90;;;;;;5066847;28;20413;-84
2022/01/21 05:47:03;;;;;;;5.10;2.63;;;2.90;99.90;;;;;;5057454;28;20439;-83
2022/01/21 05:49:31;;;;;;;8.30;3.00;;;3.00;99.90;;;;;;5067913;28;21053;-83
2022/01/21 05:52:06;;;;;;;5.67;2.57;;;3.00;99.90;;;;;;5085903;28;20425;-84
2022/01/21 05:54:33;;;;;;;4.80;2.17;;;3.00;99.90;;;;;;5061222;28;20435;-83
2022/01/21 05:57:01;;;;;;;6.03;2.40;;;3.00;99.90;;;;;;5058423;28;20421;-83
2022/01/21 05:59:27;;;;;;;9.30;2.37;;;3.00;99.90;;;;;;5066142;28;21010;-83
2022/01/21 06:01:52;;;;;;;6.47;2.30;;;3.10;99.90;;;;;;5066306;28;20464;-83
2022/01/21 06:04:18;;;;;;;14.33;3.50;;;3.10;99.90;;;;;;5084680;28;20177;-83
2022/01/21 06:06:44;;;;;;;4.50;2.00;;;3.10;99.90;;;;;;5083731;28;20179;-84
2022/01/21 06:09:09;;;;;;;7.23;2.23;;;3.10;99.90;;;;;;5064785;28;20186;-83
2022/01/21 06:11:35;;;;;;;7.57;2.70;;;3.00;99.90;;;;;;5064558;28;20653;-83
2022/01/21 06:14:02;;;;;;;5.90;2.00;;;3.10;99.90;;;;;;5064897;28;20179;-84
2022/01/21 06:16:28;;;;;;;8.60;2.60;;;3.10;99.90;;;;;;5064063;28;20519;-85
2022/01/21 06:18:54;;;;;;;4.97;2.30;;;3.00;99.90;;;;;;5063390;28;20492;-82
2022/01/21 06:21:20;;;;;;;6.93;2.50;;;3.00;99.90;;;;;;5062958;28;20419;-83
2022/01/21 06:23:46;;;;;;;5.83;2.50;;;3.00;99.90;;;;;;5062185;28;20436;-84
2022/01/21 06:26:11;;;;;;;7.13;2.13;;;2.90;99.90;;;;;;5062556;28;20242;-83
2022/01/21 06:28:37;;;;;;;6.20;3.20;;;3.00;99.90;;;;;;5062287;28;20668;-83
2022/01/21 06:31:03;;;;;;;7.97;2.23;;;3.00;99.90;;;;;;5065098;28;20429;-83
2022/01/21 06:33:28;;;;;;;3.90;2.17;;;3.00;99.90;;;;;;5065559;28;20182;-83
2022/01/21 06:35:54;;;;;;;5.23;2.60;;;3.10;99.90;;;;;;5065964;28;20654;-83
2022/01/21 06:38:21;;;;;;;13.60;4.00;;;3.10;99.90;;;;;;5084089;28;20190;-83
2022/01/21 06:40:47;;;;;;;7.47;3.33;;;3.10;99.90;;;;;;5064417;28;20179;-83
2022/01/21 06:43:14;;;;;;;8.50;3.77;;;3.10;99.90;;;;;;5064614;28;20440;-84
2022/01/21 06:45:40;;;;;;;9.67;4.00;;;3.10;99.90;;;;;;5082808;28;20396;-83
2022/01/21 06:48:06;;;;;;;8.07;4.30;;;3.10;99.90;;;;;;5064516;28;20417;-83
2022/01/21 06:50:33;;;;;;;9.73;3.57;;;3.00;99.90;;;;;;5064711;28;20856;-83
2022/01/21 06:52:59;;;;;;;9.00;3.33;;;3.00;99.90;;;;;;5083072;28;20441;-83
2022/01/21 06:55:25;;;;;;;7.90;4.60;;;2.90;99.90;;;;;;5063726;28;20456;-83
2022/01/21 06:57:51;;;;;;;14.13;3.67;;;2.90;99.90;;;;;;5081121;28;20263;-83
2022/01/21 07:00:19;;;;;;;12.70;5.17;;;2.90;99.90;;;;;;5062399;28;20488;-83
2022/01/21 07:02:49;;;;;;;5.90;3.60;;;2.90;99.90;;;;;;5062259;28;20240;-83
2022/01/21 07:05:15;;;;;;;9.10;4.50;;;2.90;99.90;;;;;;5082051;28;20433;-83
2022/01/21 07:07:41;;;;;;;7.00;3.17;;;2.90;99.90;;;;;;5037270;28;20438;-84
2022/01/21 07:10:09;;;;;;;9.50;5.13;;;2.80;99.90;;;;;;5051948;28;20425;-83
2022/01/21 07:12:35;;;;;;;15.03;5.60;;;2.80;99.90;;;;;;5074052;28;20269;-83
2022/01/21 07:15:01;;;;;;;6.77;3.97;;;2.80;99.90;;;;;;5081359;28;20473;-83
2022/01/21 07:17:26;;;;;;;7.07;3.70;;;2.80;99.90;;;;;;5080404;28;20416;-83
2022/01/21 07:19:52;;;;;;;8.67;3.97;;;2.80;99.90;;;;;;5081946;28;20209;-83
2022/01/21 07:22:18;;;;;;;6.47;3.20;;;2.80;99.90;;;;;;5061746;28;20194;-83
2022/01/21 07:24:43;;;;;;;8.57;4.33;;;2.80;99.90;;;;;;5080431;28;20174;-83
2022/01/21 07:27:09;;;;;;;9.03;4.50;;;2.80;99.90;;;;;;5059344;28;20176;-83
2022/01/21 07:29:35;;;;;;;13.77;4.60;;;2.80;99.90;;;;;;5072114;28;20434;-83
2022/01/21 07:32:01;;;;;;;5.37;3.53;;;2.80;99.90;;;;;;5039580;28;20213;-83
2022/01/21 07:34:27;;;;;;;13.73;5.10;;;2.70;99.90;;;;;;5018514;28;20469;-85
2022/01/21 07:36:54;;;;;;;6.97;3.60;;;2.70;99.90;;;;;;5017309;28;20941;-85
2022/01/21 07:39:20;;;;;;;12.73;4.00;;;2.80;99.90;;;;;;5017610;28;20246;-85
2022/01/21 07:41:45;;;;;;;8.33;4.37;;;2.80;99.90;;;;;;5016128;28;20454;-83
2022/01/21 07:44:12;;;;;;;9.73;4.10;;;2.90;99.90;;;;;;5017464;28;20187;-83
2022/01/21 07:46:39;;;;;;;13.37;3.77;;;2.80;99.90;;;;;;5047462;28;20181;-83
2022/01/21 07:49:05;;;;;;;9.97;4.23;;;2.80;99.90;;;;;;5034065;28;20484;-83
2022/01/21 07:51:31;;;;;;;11.70;4.57;;;2.80;99.90;;;;;;5032302;28;20431;-83
2022/01/21 07:53:56;;;;;;;7.77;4.10;;;2.70;99.90;;;;;;5044357;28;20182;-83
2022/01/21 07:56:23;;;;;;;10.23;3.77;;;2.60;99.90;;;;;;5036452;28;20432;-83
2022/01/21 07:58:49;;;;;;;15.93;4.30;;;2.60;99.90;;;;;;5049983;28;20213;-84
2022/01/21 08:01:14;;;;;;;10.90;5.20;;;2.60;99.90;;;;;;5063035;28;20425;-84
2022/01/21 08:03:40;;;;;;;9.83;4.20;;;2.60;99.90;;;;;;5056603;28;20214;-84
2022/01/21 08:06:05;;;;;;;6.53;4.60;;;2.60;99.90;;;;;;5056485;28;20666;-84
2022/01/21 08:08:31;;;;;;;13.30;5.27;;;2.70;99.90;;;;;;5056424;28;20185;-83
2022/01/21 08:10:57;;;;;;;12.00;5.73;;;2.60;99.90;;;;;;5056214;28;20181;-83
2022/01/21 08:13:23;;;;;;;10.83;4.90;;;2.70;99.90;;;;;;5056097;28;20232;-84
2022/01/21 08:15:49;;;;;;;9.50;5.37;;;2.60;99.90;;;;;;5074276;28;20237;-84
2022/01/21 08:18:15;;;;;;;11.27;4.57;;;2.60;99.90;;;;;;5055678;28;20936;-82
2022/01/21 08:20:45;;;;;;;18.23;5.47;;;2.70;99.90;;;;;;5054648;28;20185;-83
2022/01/21 08:23:11;;;;;;;8.63;5.03;;;2.70;99.90;;;;;;5053301;28;20992;-83
2022/01/21 08:25:37;;;;;;;9.73;4.30;;;2.80;99.90;;;;;;5040627;28;20419;-83
2022/01/21 08:28:03;;;;;;;10.20;4.10;;;2.90;99.90;;;;;;5058959;28;20463;-83
2022/01/21 08:30:28;;;;;;;9.33;4.00;;;3.10;99.90;;;;;;5047178;28;20313;-84
2022/01/21 08:32:54;;;;;;;14.30;5.60;;;3.30;99.90;;;;;;5047172;28;20206;-83
2022/01/21 08:35:20;;;;;;;11.10;4.63;;;3.30;99.90;;;;;;5055764;28;20179;-83
2022/01/21 08:37:45;;;;;;;9.70;4.30;;;3.30;99.90;;;;;;5055389;28;20180;-84
2022/01/21 08:40:11;;;;;;;6.97;4.13;;;3.30;99.90;;;;;;5055192;28;20577;-83
2022/01/21 08:42:37;;;;;;;7.80;4.20;;;3.40;99.90;;;;;;5055024;28;20206;-83
2022/01/21 08:45:03;;;;;;;11.13;4.73;;;3.40;99.90;;;;;;5073105;28;20458;-84
2022/01/21 08:47:29;;;;;;;9.70;4.37;;;3.40;99.90;;;;;;5072918;28;20263;-84
2022/01/21 08:49:56;;;;;;;10.37;4.83;;;3.30;99.90;;;;;;5055170;28;20487;-83
2022/01/21 08:52:26;;;;;;;8.30;5.27;;;3.40;99.90;;;;;;5054772;28;20210;-83
2022/01/21 08:54:51;;;;;;;8.63;4.57;;;3.40;99.90;;;;;;5055818;28;20962;-84
2022/01/21 08:57:19;;;;;;;6.77;4.53;;;3.50;99.90;;;;;;5055154;28;20417;-84
2022/01/21 08:59:46;;;;;;;9.70;4.10;;;3.60;99.90;;;;;;5055397;28;20577;-84
2022/01/21 09:02:12;;;;;;;5.70;4.13;;;3.60;99.90;;;;;;5072907;28;20474;-85
2022/01/21 09:04:37;;;;;;;10.33;3.80;;;3.70;99.90;;;;;;5055080;28;20413;-85
2022/01/21 09:07:04;;;;;;;8.83;4.80;;;3.70;99.90;;;;;;5054989;28;20420;-85
2022/01/21 09:09:29;;;;;;;23.07;5.77;;;3.70;99.90;;;;;;5045704;28;20196;-84
2022/01/21 09:11:59;;;;;;;7.70;3.77;;;3.90;99.90;;;;;;5032775;28;20524;-84
2022/01/21 09:14:27;;;;;;;12.80;4.10;;;3.80;99.90;;;;;;5055030;28;20179;-85
2022/01/21 09:16:53;;;;;;;8.97;4.80;;;4.00;99.90;;;;;;5072365;28;20909;-84
2022/01/21 09:19:19;;;;;;;8.70;4.43;;;4.00;99.90;;;;;;5054314;28;21055;-85
2022/01/21 09:21:45;;;;;;;10.87;4.40;;;4.00;99.90;;;;;;5054223;28;20516;-85
2022/01/21 09:24:11;;;;;;;9.00;4.90;;;4.00;99.90;;;;;;5054446;28;20232;-84
2022/01/21 09:26:37;;;;;;;8.67;5.40;;;3.90;99.90;;;;;;5054087;28;20406;-84
2022/01/21 09:29:05;;;;;;;11.73;4.80;;;3.90;99.90;;;;;;5054366;28;20790;-85
2022/01/21 09:31:31;;;;;;;5.70;4.40;;;3.90;99.90;;;;;;5053736;28;20956;-84
2022/01/21 09:33:56;;;;;;;9.53;5.50;;;3.90;99.90;;;;;;5054463;28;20486;-84
2022/01/21 09:36:22;;;;;;;8.37;4.80;;;3.90;99.90;;;;;;5053582;28;20650;-84
2022/01/21 09:38:48;;;;;;;8.13;4.87;;;3.90;99.90;;;;;;5055343;28;20233;-86
2022/01/21 09:41:15;;;;;;;9.40;5.30;;;3.90;99.90;;;;;;5056511;28;20753;-85
2022/01/21 09:43:45;;;;;;;6.30;4.67;;;4.00;99.90;;;;;;5073112;28;20551;-84
2022/01/21 09:46:12;;;;;;;10.97;5.10;;;4.00;99.90;;;;;;5072000;28;20426;-83
2022/01/21 09:48:51;;;;;;;10.80;5.40;;;3.90;99.90;;;;;;5071911;28;20441;-85
2022/01/21 09:51:18;;;;;;;9.57;5.13;;;3.90;99.90;;;;;;5053811;28;20432;-86
2022/01/21 09:53:44;;;;;;;8.90;6.10;;;4.00;99.90;;;;;;5053957;28;20472;-83
2022/01/21 09:56:11;;;;;;;10.10;6.00;;;4.00;99.90;;;;;;5071513;28;20422;-84
2022/01/21 09:58:36;;;;;;;13.73;5.80;;;4.10;99.90;;;;;;5071670;28;20461;-84
2022/01/21 10:01:09;;;;;;;12.07;5.23;;;4.50;99.90;;;;;;5052852;28;20893;-85
2022/01/21 10:03:35;;;;;;;8.00;5.50;;;4.60;99.90;;;;;;5050543;28;20215;-85
2022/01/21 10:06:02;;;;;;;11.73;6.03;;;4.60;99.90;;;;;;5033351;28;20411;-84
2022/01/21 10:08:29;;;;;;;15.17;5.10;;;4.80;99.90;;;;;;5034272;28;20423;-85
2022/01/21 10:10:55;;;;;;;7.77;5.27;;;5.30;99.90;;;;;;5027513;28;20425;-86
2022/01/21 10:13:21;;;;;;;11.70;4.53;;;5.40;99.90;;;;;;5014969;28;20972;-85
2022/01/21 10:15:48;;;;;;;8.80;5.10;;;5.50;99.90;;;;;;5015921;28;20179;-85
2022/01/21 10:18:16;;;;;;;8.30;5.60;;;5.60;99.90;;;;;;5015281;28;20862;-84
2022/01/21 10:21:12;;;;;;;10.27;5.37;;;5.50;99.90;;;;;;5033700;28;20445;-82
2022/01/21 10:23:40;;;;;;;6.07;4.93;;;5.60;99.90;;;;;;5015097;28;21006;-83
2022/01/21 10:26:14;;;;;;;11.23;5.70;;;5.70;99.90;;;;;;5033270;28;21037;-82
2022/01/21 10:28:53;;;;;;;9.13;4.60;;;5.80;99.90;;;;;;5015274;28;20426;-82
2022/01/21 10:31:19;;;;;;;8.17;5.00;;;5.70;99.90;;;;;;5032901;28;20436;-82
2022/01/21 10:33:50;;;;;;;7.00;4.50;;;6.00;99.90;;;;;;5033442;28;20457;-84
2022/01/21 10:36:24;;;;;;;7.77;5.50;;;6.00;99.90;;;;;;5016834;28;20519;-85
2022/01/21 10:38:51;;;;;;;9.00;4.50;;;6.00;99.90;;;;;;5016287;28;20464;-83
2022/01/21 10:41:21;;;;;;;6.00;4.30;;;6.10;99.90;;;;;;5019794;28;20569;-85
2022/01/21 10:44:06;;;;;;;10.97;5.17;;;6.10;99.90;;;;;;5019543;28;20473;-84
2022/01/21 10:46:32;;;;;;;10.03;4.57;;;6.20;99.90;;;;;;5037623;28;20395;-85
2022/01/21 10:49:06;;;;;;;5.90;4.97;;;6.30;99.90;;;;;;5071254;22;20472;-82
2022/01/21 10:51:34;;;;;;;12.10;5.03;;;6.30;99.90;;;;;;5043522;28;20190;-81
2022/01/21 10:54:16;;;;;;;11.47;4.87;;;6.50;99.90;;;;;;5030123;28;20428;-81
2022/01/21 10:57:10;;;;;;;7.40;5.10;;;6.60;99.90;;;;;;5013203;28;20918;-81
2022/01/21 10:59:49;;;;;;;11.70;6.17;;;6.50;99.90;;;;;;5013539;28;20891;-81
2022/01/21 11:02:35;;;;;;;7.30;3.93;;;6.70;99.90;;;;;;5013530;28;20441;-82
2022/01/21 11:05:31;;;;;;;9.30;4.57;;;6.70;99.90;;;;;;5013715;28;20414;-81
2022/01/21 11:08:04;;;;;;;6.73;5.23;;;7.00;99.90;;;;;;5008627;28;20423;-81
2022/01/21 11:10:33;;;;;;;9.80;4.80;;;7.00;99.90;;;;;;5031184;28;20945;-81
2022/01/21 11:13:05;;;;;;;8.53;4.30;;;7.20;99.90;;;;;;5031373;28;20419;-81
2022/01/21 11:15:46;;;;;;;7.90;4.33;;;7.40;99.90;;;;;;5014160;28;20427;-83
2022/01/21 11:18:18;;;;;;;8.23;4.33;;;7.70;99.90;;;;;;5016961;28;20415;-81
2022/01/21 11:20:48;;;;;;;13.13;5.37;;;7.70;99.90;;;;;;5016854;28;20815;-81
2022/01/21 11:23:15;;;;;;;10.10;4.80;;;7.50;99.90;;;;;;5017150;28;20425;-82
2022/01/21 11:25:49;;;;;;;9.83;5.70;;;7.60;99.90;;;;;;5016813;28;20498;-82
2022/01/21 11:28:23;;;;;;;10.03;5.13;;;7.60;99.90;;;;;;5016345;28;20427;-82
2022/01/21 11:30:51;;;;;;;10.53;4.17;;;7.40;99.90;;;;;;5016762;28;20494;-82
2022/01/21 11:33:18;;;;;;;6.23;4.67;;;7.40;99.90;;;;;;5016961;28;20423;-82
2022/01/21 11:35:44;;;;;;;13.37;3.80;;;7.40;99.90;;;;;;5032922;28;20793;-84
2022/01/21 11:38:12;;;;;;;12.07;4.77;;;7.30;99.90;;;;;;5021903;28;20811;-83
2022/01/21 11:40:39;;;;;;;8.47;4.67;;;7.40;99.90;;;;;;5030409;28;20537;-81
2022/01/21 11:43:06;;;;;;;5.57;3.97;;;7.40;99.90;;;;;;5055622;28;20789;-83
2022/01/21 11:46:04;;;;;;;7.20;3.23;;;7.50;99.90;;;;;;5027108;28;20425;-82
2022/01/21 11:50:51;;;;;;;4.97;3.63;;;7.20;99.90;;;;;;5061128;28;20454;-82
2022/01/21 11:53:46;;;;;;;9.60;3.73;;;7.20;99.90;;;;;;5060589;28;20410;-82
2022/01/21 11:56:35;;;;;;;7.73;3.87;;;7.50;99.90;;;;;;5042567;28;20421;-83
2022/01/21 11:59:19;;;;;;;10.10;4.10;;;7.20;99.90;;;;;;5042880;28;20465;-82
2022/01/21 12:01:48;;;;;;;6.40;4.40;;;6.80;99.90;;;;;;5042301;28;20449;-82
2022/01/21 12:04:35;;;;;;;7.47;3.70;;;6.80;99.90;;;;;;5042157;28;20474;-82
2022/01/21 12:07:01;;;;;;;8.70;3.97;;;7.00;99.90;;;;;;5040819;28;20468;-81
2022/01/21 12:09:55;;;;;;;10.93;5.37;;;6.90;99.90;;;;;;5040728;28;20440;-83
2022/01/21 12:12:21;;;;;;;7.43;4.20;;;6.90;99.90;;;;;;5016319;28;20766;-82
2022/01/21 12:14:52;;;;;;;8.77;5.27;;;6.80;99.90;;;;;;5016627;28;20454;-83
2022/01/21 12:17:44;;;;;;;7.47;4.63;;;6.90;99.90;;;;;;5016098;28;20502;-82
2022/01/21 12:20:10;;;;;;;8.17;5.70;;;6.70;99.90;;;;;;5016358;28;20474;-83
2022/01/21 12:22:36;;;;;;;9.50;4.67;;;6.50;99.90;;;;;;5017914;28;20438;-83
2022/01/21 12:25:06;;;;;;;8.03;5.00;;;6.50;99.90;;;;;;5053630;28;20229;-83
2022/01/21 12:27:33;;;;;;;8.80;4.90;;;6.50;99.90;;;;;;5035174;28;20614;-83
2022/01/21 12:30:23;;;;;;;7.27;4.27;;;6.50;99.90;;;;;;5053625;28;20422;-82
2022/01/21 12:33:02;;;;;;;8.43;3.83;;;6.70;99.90;;;;;;5036507;28;20448;-83
2022/01/21 12:35:29;;;;;;;6.07;3.80;;;6.60;99.90;;;;;;5054320;28;20405;-82
2022/01/21 12:41:15;;;;;;;6.60;3.90;;;6.80;99.90;;;;;;5021867;28;20531;-82
2022/01/21 12:44:08;;;;;;;6.60;3.90;;;6.90;99.90;;;;;;5053558;28;20500;-82
2022/01/21 12:46:40;;;;;;;6.53;4.17;;;6.90;99.90;;;;;;5035094;28;20406;-83
2022/01/21 12:49:37;;;;;;;7.87;4.53;;;6.90;99.90;;;;;;5035230;28;20821;-82
2022/01/21 12:57:33;;;;;;;15.57;6.23;;;6.40;99.90;;;;;;5051374;28;20439;-82
2022/01/21 13:00:01;;;;;;;14.03;5.47;;;6.20;99.90;;;;;;5015079;28;20471;-82
2022/01/21 13:02:28;;;;;;;14.37;6.33;;;6.20;99.90;;;;;;5015101;28;20866;-82
2022/01/21 13:05:10;;;;;;;10.60;4.70;;;6.30;99.90;;;;;;5032891;28;20757;-83
2022/01/21 13:07:57;;;;;;;15.50;6.30;;;6.30;99.90;;;;;;5014904;28;20446;-82
2022/01/21 13:10:28;;;;;;;7.67;5.07;;;6.30;99.90;;;;;;5014824;28;20981;-81
2022/01/21 13:13:21;;;;;;;15.10;7.90;;;6.30;99.90;;;;;;5014887;28;20423;-81
2022/01/21 13:15:47;;;;;;;8.83;5.20;;;6.30;99.90;;;;;;5032240;28;20476;-83
2022/01/21 13:18:16;;;;;;;7.23;4.50;;;6.30;99.90;;;;;;5014767;28;20418;-84
2022/01/21 13:20:52;;;;;;;8.53;4.37;;;6.40;99.90;;;;;;5014430;28;20447;-84
2022/01/21 13:23:55;;;;;;;8.60;4.80;;;6.20;99.90;;;;;;5014620;28;20402;-84
2022/01/21 13:26:27;;;;;;;10.20;4.40;;;6.20;99.90;;;;;;5010843;28;20429;-84
2022/01/21 13:29:29;;;;;;;8.70;4.80;;;6.20;99.90;;;;;;5014829;28;20442;-85
2022/01/21 13:31:59;;;;;;;7.17;4.57;;;6.30;99.90;;;;;;5008418;28;20422;-84
2022/01/21 13:34:29;;;;;;;6.00;3.87;;;6.40;99.90;;;;;;5032557;28;20413;-86
2022/01/21 13:36:59;;;;;;;7.40;4.80;;;6.40;99.90;;;;;;5014466;28;20511;-85
2022/01/21 13:39:34;;;;;;;10.13;4.43;;;6.40;99.90;;;;;;5013600;28;20478;-86
2022/01/21 13:42:11;;;;;;;10.53;4.00;;;6.20;99.90;;;;;;5014673;28;20409;-86
2022/01/21 13:44:47;;;;;;;8.57;4.67;;;6.20;99.90;;;;;;5015575;28;20465;-85
2022/01/21 13:47:33;;;;;;;11.57;4.27;;;6.30;99.90;;;;;;5032066;28;20395;-86
2022/01/21 13:50:09;;;;;;;5.90;3.67;;;6.10;99.90;;;;;;5014330;28;21000;-85
2022/01/21 13:52:44;;;;;;;7.87;4.83;;;6.20;99.90;;;;;;5014853;28;20449;-85
2022/01/21 13:55:28;;;;;;;8.73;4.90;;;6.40;99.90;;;;;;5013859;28;20425;-85
2022/01/21 13:57:56;;;;;;;6.73;4.13;;;6.40;99.90;;;;;;5014373;28;20437;-85
2022/01/21 14:00:28;;;;;;;7.67;4.33;;;6.40;99.90;;;;;;5014131;28;20466;-87
2022/01/21 14:03:07;;;;;;;6.80;4.67;;;6.40;99.90;;;;;;5014688;28;20423;-84
2022/01/21 14:05:52;;;;;;;8.07;4.27;;;6.40;99.90;;;;;;5030155;28;20445;-84
2022/01/21 14:08:44;;;;;;;8.80;5.17;;;6.30;99.90;;;;;;5039995;28;20450;-84
2022/01/21 14:11:28;;;;;;;11.80;6.43;;;6.30;99.90;;;;;;5016870;28;20437;-84